Time;durP1;ratioP1;P1;durP2;ratioP2;P2;SDS_P1;SDS_P2;PMS_P1;PMS_P2;Temp;Humidity;BMP_temperature;BMP_pressure;BME280_temperature;BME280_humidity;BME280_pressure;Samples;Min_cycle;Max_cycle;Signal;HPM_P1;HPM_P2
2022/04/23 00:01:32;;;;;;;2.85;1.50;;;;;;;27.24;26.21;95060.19;4921462;28;20034;-32
2022/04/23 00:03:58;;;;;;;1.38;1.10;;;;;;;27.24;26.21;95060.19;4924882;28;20039;-30
2022/04/23 00:06:23;;;;;;;3.13;1.40;;;;;;;27.24;26.21;95060.19;4919763;28;20086;-31
2022/04/23 00:08:49;;;;;;;2.53;1.48;;;;;;;27.24;26.21;95060.19;4899411;28;20125;-34
2022/04/23 00:11:15;;;;;;;5.45;1.73;;;;;;;-148.56;26.21;95060.19;4905367;28;20109;-31
2022/04/23 00:13:40;;;;;;;3.28;2.15;;;;;;;27.24;26.21;95060.19;4905507;28;20406;-30
2022/04/23 00:16:06;;;;;;;4.18;1.67;;;;;;;;;;4907436;28;20031;-30
2022/04/23 00:18:31;;;;;;;3.33;1.58;;;;;;;27.24;26.21;95060.19;4908610;28;20158;-31
2022/04/23 00:20:57;;;;;;;2.10;1.42;;;;;;;27.24;26.21;95060.19;4906792;28;20675;-32
2022/04/23 00:23:23;;;;;;;2.88;1.40;;;;;;;27.24;26.21;95060.19;4907702;28;20039;-39
2022/04/23 00:25:51;;;;;;;1.85;1.15;;;;;;;27.24;26.21;95060.19;4922761;28;20118;-30
2022/04/23 00:28:17;;;;;;;2.10;1.13;;;;;;;27.24;26.21;95060.19;4926650;28;20031;-28
2022/04/23 00:30:44;;;;;;;2.53;1.30;;;;;;;-148.56;26.21;95060.19;4924144;28;20038;-33
2022/04/23 00:33:10;;;;;;;2.63;1.17;;;;;;;27.24;26.21;95060.19;4922473;28;20031;-33
2022/04/23 00:35:36;;;;;;;3.20;1.00;;;;;;;27.24;26.21;95060.19;4924636;28;20055;-31
2022/04/23 00:38:02;;;;;;;2.40;1.35;;;;;;;27.24;26.21;95060.19;4923677;28;20113;-30
2022/04/23 00:40:28;;;;;;;2.05;1.15;;;;;;;27.24;26.21;95060.19;4925844;28;20076;-31
2022/04/23 00:42:55;;;;;;;10.57;1.88;;;;;;;27.24;26.21;95060.19;4925949;28;20038;-32
2022/04/23 00:45:24;;;;;;;11.65;2.13;;;;;;;27.24;26.21;95060.19;4940825;28;20035;-31
2022/04/23 00:47:50;;;;;;;8.32;1.50;;;;;;;27.24;26.21;95060.19;4919842;28;20035;-33
2022/04/23 00:50:17;;;;;;;2.65;1.52;;;;;;;27.24;26.21;95060.19;4929492;28;20078;-31
2022/04/23 00:52:43;;;;;;;2.25;1.17;;;;;;;27.24;26.21;95060.19;4939727;28;20062;-30
2022/04/23 00:55:08;;;;;;;2.03;1.30;;;;;;;27.24;26.21;95060.19;4932548;28;20318;-31
2022/04/23 00:57:34;;;;;;;2.00;1.30;;;;;;;27.24;26.21;95060.19;4927666;28;20095;-30
2022/04/23 01:00:06;;;;;;;2.65;1.38;;;;;;;27.24;26.21;95060.19;4931823;28;20043;-30
2022/04/23 01:02:32;;;;;;;3.13;1.40;;;;;;;27.24;26.21;95060.19;4944981;28;20106;-30
2022/04/23 01:04:57;;;;;;;1.63;1.27;;;;;;;-148.56;26.21;69637.34;4933448;28;20049;-30
2022/04/23 01:07:23;;;;;;;2.60;1.10;;;;;;;-148.56;26.21;95060.19;4926471;28;20035;-29
2022/04/23 01:09:48;;;;;;;2.20;1.30;;;;;;;27.24;26.21;95060.19;4930633;28;20039;-29
2022/04/23 01:12:14;;;;;;;1.95;1.35;;;;;;;27.24;26.21;95060.19;4930223;28;20047;-31
2022/04/23 01:15:02;;;;;;;2.08;1.02;;;;;;;27.24;26.21;95060.19;4927743;28;20070;-30
2022/04/23 01:17:28;;;;;;;1.25;0.73;;;;;;;27.24;26.21;95060.19;4926041;28;20094;-30
2022/04/23 01:19:53;;;;;;;3.28;1.42;;;;;;;27.24;26.21;95060.19;4925004;28;20035;-31
2022/04/23 01:22:18;;;;;;;2.08;1.27;;;;;;;27.24;26.21;95060.19;4925994;28;20027;-30
2022/04/23 01:24:44;;;;;;;4.05;1.40;;;;;;;27.24;26.21;95060.19;4893961;28;22575;-32
2022/04/23 01:27:10;;;;;;;3.13;1.35;;;;;;;27.24;26.21;95060.19;4882534;28;20770;-29
2022/04/23 01:29:39;;;;;;;2.28;1.10;;;;;;;-148.56;26.21;95060.19;4886825;28;20101;-32
2022/04/23 01:32:05;;;;;;;2.05;1.20;;;;;;;27.24;26.21;95060.19;4884466;28;20402;-31
2022/04/23 01:34:30;;;;;;;3.95;1.30;;;;;;;-148.56;26.21;95060.19;4886293;28;20277;-33
2022/04/23 01:36:56;;;;;;;1.73;1.13;;;;;;;-148.56;26.21;95060.19;4883430;28;20485;-30
2022/04/23 01:39:21;;;;;;;1.50;1.23;;;;;;;27.24;26.21;95060.19;4886250;28;20055;-32
2022/04/23 01:41:47;;;;;;;3.38;1.20;;;;;;;27.24;26.21;95060.19;4884541;28;20059;-31
2022/04/23 01:44:13;;;;;;;2.10;1.20;;;;;;;-148.56;25.20;61375.16;4885451;28;20246;-28
2022/04/23 01:46:38;;;;;;;1.70;1.05;;;;;;;-148.56;26.21;95060.19;4883088;28;20165;-35
2022/04/23 01:49:04;;;;;;;1.75;1.40;;;;;;;-148.56;26.21;69637.34;4884994;28;20094;-30
2022/04/23 01:51:29;;;;;;;3.17;1.15;;;;;;;-148.56;26.21;95060.19;4882139;28;20091;-35
2022/04/23 01:53:54;;;;;;;1.42;1.33;;;;;;;-148.56;26.21;95060.19;4882856;28;20031;-33
2022/04/23 01:56:20;;;;;;;1.90;1.27;;;;;;;27.24;26.21;95060.19;4878232;28;20035;-30
2022/04/23 01:58:45;;;;;;;2.45;1.30;;;;;;;27.24;26.21;95060.19;4879859;28;20048;-33
2022/04/23 02:01:11;;;;;;;1.33;1.08;;;;;;;-148.56;26.21;95060.19;4878628;28;22115;-32
2022/04/23 02:03:36;;;;;;;2.35;1.33;;;;;;;27.24;26.21;95060.19;4877071;28;20035;-32
2022/04/23 02:06:02;;;;;;;1.30;0.90;;;;;;;-148.56;26.21;95060.19;4880849;28;21834;-31
2022/04/23 02:08:27;;;;;;;2.72;1.40;;;;;;;;;;4879482;28;20074;-29
2022/04/23 02:10:54;;;;;;;1.13;0.80;;;;;;;-148.56;26.21;95060.19;4878883;28;20039;-30
2022/04/23 02:13:19;;;;;;;1.40;0.82;;;;;;;-148.56;26.21;69637.34;4880784;28;20141;-31
2022/04/23 02:15:45;;;;;;;1.85;1.27;;;;;;;27.24;26.21;95060.19;4880385;28;20043;-29
2022/04/23 02:18:11;;;;;;;1.60;1.00;;;;;;;-148.56;26.21;95060.19;4877114;28;20090;-34
2022/04/23 02:20:36;;;;;;;3.15;1.58;;;;;;;-148.56;26.21;95060.19;4880360;28;20058;-29
2022/04/23 02:23:02;;;;;;;2.38;1.10;;;;;;;27.24;26.21;95060.19;4883079;28;20362;-30
2022/04/23 02:25:27;;;;;;;2.25;1.10;;;;;;;-148.56;26.21;95060.19;4918940;28;20446;-29
2022/04/23 02:27:52;;;;;;;3.20;0.82;;;;;;;27.24;26.21;95060.19;4914851;28;20043;-29
2022/04/23 02:30:19;;;;;;;4.05;1.50;;;;;;;27.24;26.21;95060.19;4921257;28;20035;-33
2022/04/23 02:32:45;;;;;;;1.40;1.02;;;;;;;27.24;26.21;95060.19;4920648;28;20027;-29
2022/04/23 02:35:11;;;;;;;1.17;1.05;;;;;;;27.24;26.21;95060.19;4920987;28;20043;-28
2022/04/23 02:37:36;;;;;;;1.70;1.20;;;;;;;27.24;26.21;95060.19;4922088;28;20067;-30
2022/04/23 02:40:02;;;;;;;1.98;1.02;;;;;;;27.24;26.21;95060.19;4921791;28;20475;-30
2022/04/23 02:42:29;;;;;;;4.47;1.05;;;;;;;27.24;26.21;95060.19;4921601;28;20468;-30
2022/04/23 02:44:54;;;;;;;1.83;1.10;;;;;;;27.24;26.21;95060.19;4923904;28;20031;-29
2022/04/23 02:47:20;;;;;;;1.67;1.00;;;;;;;27.24;26.21;95060.19;4920224;28;20050;-29
2022/04/23 02:49:45;;;;;;;1.55;1.05;;;;;;;27.24;26.21;95060.19;4921316;28;20043;-30
2022/04/23 02:52:10;;;;;;;0.93;0.90;;;;;;;-148.56;26.21;69637.34;4919428;28;20027;-28
2022/04/23 02:54:38;;;;;;;1.63;1.15;;;;;;;27.24;26.21;95060.19;4920757;28;20047;-32
2022/04/23 02:57:04;;;;;;;1.80;1.00;;;;;;;-148.56;26.21;95060.19;4921089;28;20038;-30
2022/04/23 02:59:29;;;;;;;1.48;1.10;;;;;;;27.24;26.21;95060.19;4923545;28;20054;-29
2022/04/23 03:01:55;;;;;;;1.75;1.00;;;;;;;27.24;26.21;95060.19;4919466;28;20027;-29
2022/04/23 03:04:21;;;;;;;1.52;1.10;;;;;;;27.24;26.21;95060.19;4921935;28;20026;-29
2022/04/23 03:06:46;;;;;;;1.13;1.00;;;;;;;27.24;26.21;95060.19;4922071;28;20445;-29
2022/04/23 03:09:12;;;;;;;2.15;1.10;;;;;;;27.24;26.21;95060.19;4919463;28;20474;-29
2022/04/23 03:11:37;;;;;;;4.28;1.08;;;;;;;27.24;26.21;95060.19;4923158;28;20049;-30
2022/04/23 03:14:04;;;;;;;2.30;1.13;;;;;;;-148.56;26.21;95060.19;4922134;28;20545;-28
2022/04/23 03:16:29;;;;;;;1.25;1.10;;;;;;;-148.56;100.00;61375.16;4922784;28;20031;-28
2022/04/23 03:18:56;;;;;;;1.63;1.02;;;;;;;27.24;26.21;95060.19;4921968;28;20122;-28
2022/04/23 03:21:22;;;;;;;2.10;1.08;;;;;;;-148.56;26.21;69637.34;4925588;28;20027;-27
2022/04/23 03:23:47;;;;;;;1.13;1.02;;;;;;;27.24;26.21;95060.19;4927924;28;20028;-30
2022/04/23 03:26:13;;;;;;;1.20;1.10;;;;;;;27.24;26.21;95060.19;4930737;28;20083;-34
2022/04/23 03:28:38;;;;;;;2.08;1.10;;;;;;;27.24;26.21;95060.19;4934259;28;20024;-30
2022/04/23 03:31:03;;;;;;;1.15;0.93;;;;;;;;;;4934236;28;20042;-30
2022/04/23 03:33:29;;;;;;;1.75;1.20;;;;;;;-148.56;26.21;69637.66;4931461;28;20075;-31
2022/04/23 03:35:54;;;;;;;1.10;0.85;;;;;;;27.24;26.21;95060.19;4932338;28;20047;-30
2022/04/23 03:38:19;;;;;;;2.28;1.15;;;;;;;-148.56;26.21;95060.19;4924058;28;20060;-30
2022/04/23 03:40:48;;;;;;;1.40;1.10;;;;;;;27.24;26.21;95060.19;4924611;28;20475;-32
2022/04/23 03:43:13;;;;;;;1.27;1.02;;;;;;;27.24;26.21;95060.19;4924793;28;20114;-34
2022/04/23 03:45:39;;;;;;;2.45;1.30;;;;;;;-148.56;26.21;95060.19;4925432;28;20417;-32
2022/04/23 03:48:04;;;;;;;1.20;1.00;;;;;;;27.24;26.21;95060.19;4926740;28;20036;-31
2022/04/23 03:50:30;;;;;;;1.23;1.05;;;;;;;27.24;26.21;95060.19;4928497;28;20296;-39
2022/04/23 03:52:56;;;;;;;2.05;1.15;;;;;;;27.24;26.21;95060.19;4926734;28;20406;-29
2022/04/23 03:55:22;;;;;;;1.45;1.08;;;;;;;27.24;26.21;95060.19;4929833;28;20031;-30
2022/04/23 03:57:49;;;;;;;1.42;0.98;;;;;;;27.24;26.21;95060.19;4928843;28;20040;-31
2022/04/23 04:00:15;;;;;;;1.88;1.13;;;;;;;27.24;26.21;95060.19;4926892;28;20023;-29
2022/04/23 04:02:42;;;;;;;1.15;1.05;;;;;;;27.24;26.21;95060.19;4924093;28;20031;-31
2022/04/23 04:05:07;;;;;;;1.05;0.90;;;;;;;-100.71;26.21;95060.19;4923886;28;20074;-34
2022/04/23 04:07:33;;;;;;;2.03;1.20;;;;;;;27.24;26.21;95060.19;4919877;28;20415;-31
2022/04/23 04:10:02;;;;;;;1.50;1.20;;;;;;;27.24;26.21;95060.19;4941034;28;20546;-29
2022/04/23 04:12:27;;;;;;;1.20;0.90;;;;;;;27.24;26.21;95060.19;4922956;28;20031;-27
2022/04/23 04:14:53;;;;;;;1.98;0.93;;;;;;;27.24;26.21;95060.19;4924026;28;20799;-31
2022/04/23 04:17:18;;;;;;;0.90;0.90;;;;;;;27.24;26.21;95060.19;4924793;28;20031;-32
2022/04/23 04:19:44;;;;;;;1.77;1.13;;;;;;;27.24;26.21;95060.19;4922242;28;20020;-30
2022/04/23 04:22:09;;;;;;;0.77;0.63;;;;;;;27.24;26.21;95060.19;4939317;28;20023;-32
2022/04/23 04:24:35;;;;;;;1.20;1.10;;;;;;;27.24;26.21;95060.19;4922200;28;20036;-30
2022/04/23 04:27:00;;;;;;;1.67;1.00;;;;;;;-148.56;26.21;95060.19;4930622;28;20070;-29
2022/04/23 04:29:26;;;;;;;2.35;1.23;;;;;;;27.24;26.21;95060.19;4937319;28;20094;-31
2022/04/23 04:31:51;;;;;;;1.35;1.13;;;;;;;27.24;26.21;95060.19;4929034;28;20027;-28
2022/04/23 04:34:20;;;;;;;2.25;1.15;;;;;;;27.24;26.21;95060.19;4926527;28;20031;-29
2022/04/23 04:36:47;;;;;;;1.50;0.98;;;;;;;27.24;26.21;95060.19;4930797;28;20066;-32
2022/04/23 04:39:13;;;;;;;1.17;0.95;;;;;;;27.24;26.21;95060.19;4945478;28;20226;-28
2022/04/23 04:41:38;;;;;;;2.08;1.13;;;;;;;-148.56;26.21;95060.19;4943821;28;20474;-31
2022/04/23 04:44:05;;;;;;;1.50;0.90;;;;;;;27.24;26.21;95060.19;4931976;28;20070;-30
2022/04/23 04:46:31;;;;;;;1.00;0.90;;;;;;;27.24;26.21;95060.19;4931237;28;20031;-31
2022/04/23 04:48:56;;;;;;;1.75;1.20;;;;;;;27.24;26.21;95060.19;4930735;28;20110;-29
2022/04/23 04:51:22;;;;;;;2.83;1.33;;;;;;;27.24;26.21;95060.19;4932250;28;20078;-32
2022/04/23 04:53:47;;;;;;;1.92;0.93;;;;;;;27.24;26.21;95060.19;4930818;28;20112;-29
2022/04/23 04:56:12;;;;;;;0.90;0.90;;;;;;;27.24;26.21;95060.19;4944943;28;20031;-31
2022/04/23 04:58:38;;;;;;;1.60;0.98;;;;;;;27.24;26.21;95060.19;4929765;28;20023;-30
2022/04/23 05:01:03;;;;;;;1.77;1.20;;;;;;;27.24;26.21;95060.19;4930833;28;20046;-28
2022/04/23 05:03:29;;;;;;;2.13;0.75;;;;;;;27.24;26.21;95060.19;4928389;28;20032;-31
2022/04/23 05:05:54;;;;;;;1.25;1.00;;;;;;;27.24;26.21;95060.19;4930492;28;20043;-32
2022/04/23 05:08:20;;;;;;;2.15;0.90;;;;;;;27.24;26.21;95060.19;4928120;28;20740;-32
2022/04/23 05:10:46;;;;;;;2.03;1.00;;;;;;;27.24;26.21;95060.19;4929126;28;20035;-30
2022/04/23 05:13:11;;;;;;;1.98;1.10;;;;;;;-148.56;26.21;95060.19;4932136;28;20059;-30
2022/04/23 05:15:37;;;;;;;1.17;1.08;;;;;;;27.24;26.21;95060.19;4927209;28;20050;-30
2022/04/23 05:18:03;;;;;;;2.53;1.17;;;;;;;27.24;26.21;95060.19;4929932;28;20043;-28
2022/04/23 05:20:28;;;;;;;1.38;1.05;;;;;;;27.24;26.21;95060.19;4929793;28;20184;-28
2022/04/23 05:22:54;;;;;;;1.08;0.98;;;;;;;27.24;26.21;95060.19;4932366;28;20915;-33
2022/04/23 05:25:19;;;;;;;3.85;1.70;;;;;;;27.24;26.21;95060.19;4919178;28;20138;-29
2022/04/23 05:27:45;;;;;;;5.65;1.60;;;;;;;-148.56;26.21;95060.19;4923100;28;20062;-29
2022/04/23 05:30:10;;;;;;;1.48;1.30;;;;;;;27.24;26.21;95060.19;4923741;28;20082;-32
2022/04/23 05:32:36;;;;;;;1.80;1.20;;;;;;;27.24;26.21;95060.19;4921165;28;20619;-30
2022/04/23 05:35:01;;;;;;;1.20;1.10;;;;;;;27.24;26.21;95060.19;4920328;28;20039;-29
2022/04/23 05:37:27;;;;;;;1.95;1.40;;;;;;;27.24;26.21;95060.19;4922389;28;20039;-31
2022/04/23 05:39:52;;;;;;;1.20;1.10;;;;;;;27.24;26.21;95060.19;4923323;28;20023;-33
2022/04/23 05:42:17;;;;;;;1.65;1.10;;;;;;;27.24;26.21;95060.19;4918975;28;20032;-32
2022/04/23 05:44:43;;;;;;;1.83;1.35;;;;;;;27.24;26.21;95060.19;4924626;28;20560;-29
2022/04/23 05:47:08;;;;;;;1.48;1.10;;;;;;;27.24;26.21;95060.19;4923079;28;20044;-29
2022/04/23 05:49:37;;;;;;;1.48;1.17;;;;;;;-148.56;26.21;95060.19;4923955;28;20035;-31
2022/04/23 05:52:02;;;;;;;2.00;1.48;;;;;;;27.24;26.21;95060.19;4937945;28;20321;-31
2022/04/23 05:54:28;;;;;;;1.20;1.08;;;;;;;27.24;26.21;95060.19;4923235;28;20061;-29
2022/04/23 05:56:53;;;;;;;1.80;1.10;;;;;;;27.24;26.21;95060.19;4923872;28;20086;-30
2022/04/23 05:59:19;;;;;;;2.53;1.25;;;;;;;-148.56;26.21;95060.19;4923524;28;20051;-31
2022/04/23 06:01:44;;;;;;;1.88;1.20;;;;;;;27.24;26.21;95060.19;4922444;28;20110;-30
2022/04/23 06:04:09;;;;;;;1.30;1.08;;;;;;;27.24;26.21;95060.19;4922104;28;20039;-33
2022/04/23 06:06:35;;;;;;;1.65;1.15;;;;;;;-148.56;26.21;95060.19;4919428;28;20469;-30
2022/04/23 06:09:00;;;;;;;1.33;1.23;;;;;;;27.24;26.21;95060.19;4918631;28;20032;-29
2022/04/23 06:11:25;;;;;;;1.30;1.20;;;;;;;27.24;26.21;95060.19;4923499;28;20042;-29
2022/04/23 06:13:51;;;;;;;1.25;1.15;;;;;;;27.24;26.21;95060.19;4921332;28;20043;-31
2022/04/23 06:16:16;;;;;;;1.40;1.30;;;;;;;27.24;26.21;95060.19;4917488;28;21026;-32
2022/04/23 06:18:42;;;;;;;0.90;0.90;;;;;;;27.24;26.21;95060.19;4921905;28;20039;-29
2022/04/23 06:21:08;;;;;;;1.05;0.95;;;;;;;27.24;26.21;95060.19;4919076;28;20047;-30
2022/04/23 06:23:33;;;;;;;1.45;1.33;;;;;;;27.24;26.21;95060.19;4923623;28;20028;-29
2022/04/23 06:25:59;;;;;;;2.13;1.17;;;;;;;27.24;26.21;95060.19;4914345;28;21760;-29
2022/04/23 06:28:24;;;;;;;10.00;1.95;;;;;;;26.97;27.45;95216.69;4916982;28;20030;-29
2022/04/23 06:30:49;;;;;;;3.03;1.90;;;;;;;26.97;27.45;95216.69;4918631;28;20038;-30
2022/04/23 06:33:16;;;;;;;4.85;1.63;;;;;;;26.97;27.45;95216.69;4919224;28;21057;-30
2022/04/23 06:35:41;;;;;;;6.97;1.98;;;;;;;26.97;27.45;95216.69;4921290;28;20106;-30
2022/04/23 06:38:07;;;;;;;6.90;1.50;;;;;;;26.97;27.45;95216.69;4919007;28;20039;-29
2022/04/23 06:40:32;;;;;;;6.90;2.05;;;;;;;26.97;27.45;95216.69;4919269;28;20035;-29
2022/04/23 06:42:57;;;;;;;6.10;2.40;;;;;;;26.97;27.45;95216.69;4918536;28;20031;-32
2022/04/23 06:45:23;;;;;;;7.38;2.42;;;;;;;26.97;27.45;95216.69;4918284;28;20023;-33
2022/04/23 06:47:57;;;;;;;5.35;2.38;;;;;;;26.97;27.45;95216.69;4916043;28;20103;-29
2022/04/23 06:50:22;;;;;;;6.60;2.65;;;;;;;26.97;27.45;95216.69;4933400;28;20844;-32
2022/04/23 06:52:48;;;;;;;7.43;2.60;;;;;;;26.97;27.45;95216.69;4914385;28;20035;-33
2022/04/23 06:55:13;;;;;;;9.45;2.58;;;;;;;26.97;27.45;95216.69;4921881;28;20035;-30
2022/04/23 06:57:45;;;;;;;12.73;3.13;;;;;;;26.97;27.45;95216.69;4920681;28;20024;-29
2022/04/23 07:00:12;;;;;;;8.27;3.17;;;;;;;26.97;27.45;95216.69;4918088;28;20070;-31
2022/04/23 07:02:37;;;;;;;6.75;2.90;;;;;;;26.97;27.45;95216.69;4916740;28;20117;-30
2022/04/23 07:05:03;;;;;;;7.53;3.22;;;;;;;26.97;27.45;95216.69;4929108;28;20059;-30
2022/04/23 07:07:28;;;;;;;5.50;2.50;;;;;;;26.97;27.45;95216.69;4922273;28;20035;-30
2022/04/23 07:09:54;;;;;;;8.38;2.72;;;;;;;26.97;27.45;95216.69;4926706;28;20039;-29
2022/04/23 07:12:19;;;;;;;7.68;2.95;;;;;;;26.97;27.45;95216.69;4941722;28;20043;-29
2022/04/23 07:14:44;;;;;;;7.07;2.85;;;;;;;26.97;27.45;95216.69;4932068;28;20482;-30
2022/04/23 07:17:10;;;;;;;8.30;2.90;;;;;;;-148.56;27.45;95216.69;4927207;28;20035;-33
2022/04/23 07:19:41;;;;;;;6.50;2.83;;;;;;;26.97;27.45;95216.69;4930053;28;20906;-30
2022/04/23 07:22:07;;;;;;;9.00;2.70;;;;;;;26.97;27.45;95216.69;4925196;28;20510;-30
2022/04/23 07:24:33;;;;;;;5.75;2.25;;;;;;;26.97;27.45;95216.69;4929051;28;20043;-29
2022/04/23 07:26:59;;;;;;;6.07;2.50;;;;;;;26.97;27.45;95216.69;4918574;28;20690;-32
2022/04/23 07:29:24;;;;;;;9.85;2.78;;;;;;;26.97;27.45;95216.69;4915515;28;20024;-33
2022/04/23 07:31:50;;;;;;;6.38;2.63;;;;;;;26.97;27.45;95216.69;4923460;28;23235;-29
2022/04/23 07:39:44;;;;;;;5.50;1.98;;;;;;;26.97;27.45;95216.69;4919987;28;20802;-33
2022/04/23 07:42:10;;;;;;;8.55;2.47;;;;;;;26.97;27.45;95216.69;4932173;28;20176;-29
2022/04/23 07:44:36;;;;;;;5.38;2.17;;;;;;;26.97;27.45;95216.69;4919242;28;20765;-34
2022/04/23 07:47:02;;;;;;;4.25;2.63;;;;;;;26.97;27.45;95216.69;4923604;28;20053;-31
2022/04/23 07:49:27;;;;;;;5.60;2.17;;;;;;;26.97;27.45;95216.69;4919696;28;20660;-31
2022/04/23 07:51:53;;;;;;;10.85;2.10;;;;;;;26.97;27.45;95216.69;4916902;28;20038;-29
2022/04/23 07:54:18;;;;;;;6.60;2.58;;;;;;;26.97;27.45;95216.69;4921312;28;20043;-33
2022/04/23 07:56:44;;;;;;;8.45;2.30;;;;;;;26.97;27.45;95216.69;4921025;28;20035;-31
2022/04/23 07:59:09;;;;;;;6.82;2.35;;;;;;;26.97;27.45;95216.69;4926571;28;20450;-28
2022/04/23 08:01:35;;;;;;;5.25;1.98;;;;;;;26.97;27.45;95216.69;4923888;28;20032;-32
2022/04/23 08:04:03;;;;;;;12.85;2.40;;;;;;;26.97;27.45;95216.69;4924627;28;20999;-31
2022/04/23 08:06:28;;;;;;;5.55;2.10;;;;;;;26.97;27.45;95216.69;4926390;28;20170;-33
2022/04/23 08:08:54;;;;;;;5.93;2.00;;;;;;;26.97;27.45;95216.69;4928381;28;20036;-32
2022/04/23 08:11:22;;;;;;;6.82;1.85;;;;;;;26.97;27.45;95216.69;4923558;28;20032;-31
2022/04/23 08:13:48;;;;;;;4.47;2.10;;;;;;;26.97;27.45;95216.69;4924168;28;20102;-31
2022/04/23 08:16:14;;;;;;;4.78;2.10;;;;;;;26.97;27.45;95216.69;4923195;28;20031;-31
2022/04/23 08:18:39;;;;;;;3.85;2.00;;;;;;;26.97;27.45;95216.69;4920077;28;20227;-31
2022/04/23 08:21:04;;;;;;;4.95;2.17;;;;;;;26.97;27.45;95216.69;4920644;28;20028;-32
2022/04/23 08:23:33;;;;;;;7.43;2.47;;;;;;;26.97;27.45;95216.69;4923260;28;20031;-31
2022/04/23 08:26:00;;;;;;;3.70;2.10;;;;;;;26.97;27.45;95216.69;4923405;28;20027;-28
2022/04/23 08:31:12;;;;;;;3.28;1.90;;;;;;;26.97;27.45;95216.69;4923547;28;20041;-28
2022/04/23 08:36:22;;;;;;;5.35;2.05;;;;;;;26.97;27.45;95216.69;4932895;28;20070;-30
2022/04/23 08:38:47;;;;;;;3.95;1.80;;;;;;;26.97;27.45;95216.69;4933447;28;20032;-31
2022/04/23 08:41:13;;;;;;;7.38;1.98;;;;;;;27.00;27.99;95248.81;4927807;28;20058;-30
2022/04/23 08:43:41;;;;;;;7.82;4.50;;;;;;;27.00;27.99;95248.81;4929147;28;20413;-30
2022/04/23 08:46:06;;;;;;;6.47;4.82;;;;;;;26.81;26.27;95244.19;4929019;28;20035;-31
2022/04/23 08:48:37;;;;;;;5.40;4.90;;;;;;;26.81;26.27;95244.19;4928041;28;20031;-30
2022/04/23 08:51:03;;;;;;;6.35;4.63;;;;;;;26.81;26.27;95244.19;4928435;28;20138;-30
2022/04/23 08:53:31;;;;;;;14.13;3.13;;;;;;;26.22;26.12;95239.22;4925048;28;20027;-30
2022/04/23 08:55:56;;;;;;;5.78;2.70;;;;;;;26.13;25.90;95244.34;4929721;28;20046;-28
2022/04/23 08:58:23;;;;;;;3.00;2.17;;;;;;;26.08;26.10;95248.16;4928306;28;20410;-31
2022/04/23 09:00:48;;;;;;;2.75;1.83;;;;;;;26.08;26.10;95248.16;4927087;28;20031;-31
2022/04/23 09:03:14;;;;;;;1.80;1.63;;;;;;;26.08;26.10;95248.16;4926287;28;20035;-30
2022/04/23 09:05:40;;;;;;;3.45;1.88;;;;;;;26.08;26.10;95248.16;4922447;28;20089;-30
2022/04/23 09:08:07;;;;;;;2.15;1.40;;;;;;;26.08;26.10;95248.16;4915424;28;20632;-30
2022/04/23 09:10:44;;;;;;;2.45;1.60;;;;;;;26.08;26.10;95248.16;4922706;28;20030;-33
2022/04/23 09:13:10;;;;;;;5.05;1.55;;;;;;;26.15;26.54;95243.28;4919663;28;20038;-30
2022/04/23 09:24:10;;;;;;;9.60;1.70;;;;;;;26.25;26.70;95240.75;4925693;28;20042;-30
2022/04/23 09:26:35;;;;;;;6.15;1.80;;;;;;;26.25;26.70;95240.75;4920468;28;20146;-33
2022/04/23 09:29:15;;;;;;;4.65;1.58;;;;;;;26.25;26.70;95240.75;4922305;28;20035;-34
2022/04/23 09:31:41;;;;;;;11.30;1.85;;;;;;;26.25;26.70;95240.75;4922768;28;20642;-29
2022/04/23 09:34:17;;;;;;;7.53;1.40;;;;;;;26.25;26.70;95240.75;4918022;28;20019;-33
2022/04/23 09:36:50;;;;;;;4.55;2.08;;;;;;;26.25;26.70;95240.75;4938060;28;20035;-29
2022/04/23 09:39:18;;;;;;;6.63;2.50;;;;;;;26.46;26.83;95243.47;4921760;28;20049;-32
2022/04/23 09:41:44;;;;;;;13.45;2.47;;;;;;;26.50;26.97;95245.88;4924073;28;20035;-30
2022/04/23 09:44:09;;;;;;;8.77;2.35;;;;;;;26.52;27.00;95239.53;4928465;28;20031;-31
2022/04/23 09:46:48;;;;;;;10.15;1.95;;;;;;;26.52;27.00;95239.53;4928938;28;20475;-30
2022/04/23 09:49:21;;;;;;;7.22;2.03;;;;;;;26.52;27.00;95239.53;4929626;28;20125;-30
2022/04/23 09:52:08;;;;;;;5.63;1.95;;;;;;;26.52;27.00;95239.53;4930828;28;20119;-32
2022/04/23 09:54:34;;;;;;;7.43;2.67;;;;;;;26.52;27.00;95239.53;4930001;28;20034;-30
2022/04/23 09:57:00;;;;;;;6.53;2.33;;;;;;;26.52;27.00;95239.53;4928724;28;20043;-31
2022/04/23 09:59:26;;;;;;;9.10;2.20;;;;;;;26.52;27.00;95239.53;4931973;28;20106;-32
2022/04/23 10:01:53;;;;;;;6.25;2.25;;;;;;;26.66;26.95;95253.34;4933039;28;20034;-29
2022/04/23 10:04:21;;;;;;;8.52;2.10;;;;;;;26.66;26.95;95253.34;4931258;28;20557;-30
2022/04/23 10:06:48;;;;;;;3.88;1.70;;;;;;;26.66;26.95;95253.34;4929425;28;21749;-33
2022/04/23 10:09:14;;;;;;;7.85;2.53;;;;;;;26.66;26.95;95253.34;4941646;28;20038;-31
2022/04/23 10:11:41;;;;;;;5.53;2.20;;;;;;;26.66;26.95;95253.34;4912441;28;20034;-32
2022/04/23 10:14:06;;;;;;;6.80;2.10;;;;;;;26.72;26.61;95247.56;4931501;28;20034;-30
2022/04/23 10:16:32;;;;;;;5.88;2.30;;;;;;;26.74;27.13;95249.13;4945668;28;20028;-31
2022/04/23 10:18:58;;;;;;;5.72;2.22;;;;;;;26.76;27.16;95240.28;4926036;28;20484;-30
2022/04/23 10:21:53;;;;;;;4.15;2.13;;;;;;;26.76;27.16;95240.28;4927226;28;20042;-30
2022/04/23 10:24:36;;;;;;;3.75;1.73;;;;;;;26.76;27.16;95240.28;4917553;28;20201;-32
2022/04/23 10:27:07;;;;;;;6.55;2.10;;;;;;;26.76;27.16;95240.28;4927062;28;20035;-30
2022/04/23 10:29:32;;;;;;;5.50;2.38;;;;;;;26.76;27.16;95240.28;4929230;28;20023;-30
2022/04/23 10:32:13;;;;;;;7.75;2.40;;;;;;;26.76;27.16;95240.28;4930917;28;20031;-29
2022/04/23 10:34:39;;;;;;;5.57;2.60;;;;;;;26.76;27.16;95240.28;4924729;28;20034;-33
2022/04/23 10:37:19;;;;;;;6.20;2.20;;;;;;;26.76;27.16;95240.28;4926894;28;20043;-31
2022/04/23 10:39:51;;;;;;;4.75;2.03;;;;;;;26.76;27.16;95240.28;4925661;28;20114;-31
2022/04/23 10:42:21;;;;;;;3.83;1.83;;;;;;;26.83;27.07;95239.66;4939286;28;20091;-29
2022/04/23 10:44:46;;;;;;;6.32;2.30;;;;;;;26.83;27.07;95239.66;4933034;28;20073;-31
2022/04/23 10:47:34;;;;;;;4.40;1.98;;;;;;;26.83;27.07;95239.66;4931253;28;20028;-34
2022/04/23 10:52:44;;;;;;;4.18;1.92;;;;;;;26.83;27.07;95239.66;4932902;28;20035;-33
2022/04/23 10:55:10;;;;;;;3.85;2.00;;;;;;;26.83;27.07;95239.66;4927874;28;20028;-30
2022/04/23 10:57:36;;;;;;;4.78;2.10;;;;;;;26.83;27.07;95239.66;4930481;28;20039;-31
2022/04/23 11:00:11;;;;;;;3.25;1.77;;;;;;;26.83;27.07;95239.66;4928017;28;20040;-42
2022/04/23 11:02:39;;;;;;;6.10;2.45;;;;;;;26.83;27.07;95239.66;4925861;28;20098;-30
2022/04/23 11:13:29;;;;;;;4.97;2.00;;;;;;;26.83;27.07;95239.66;4929093;28;20105;-29
2022/04/23 11:16:16;;;;;;;4.90;2.40;;;;;;;26.83;27.07;95239.66;4924349;28;20054;-31
2022/04/23 11:18:42;;;;;;;4.95;2.03;;;;;;;26.83;27.07;95239.66;4939994;28;20796;-30
2022/04/23 11:21:12;;;;;;;7.05;2.17;;;;;;;26.83;27.07;95239.66;4931960;28;21017;-29
2022/04/23 11:23:45;;;;;;;3.33;1.73;;;;;;;26.83;27.07;95239.66;4943760;28;20024;-30
2022/04/23 11:26:12;;;;;;;3.75;1.90;;;;;;;26.83;27.07;95239.66;4929136;28;20411;-31
2022/04/23 11:28:39;;;;;;;3.03;1.90;;;;;;;26.92;27.39;95209.13;4928426;28;20027;-30
2022/04/23 11:31:17;;;;;;;4.45;2.20;;;;;;;26.92;27.39;95209.13;4930549;28;20530;-31
2022/04/23 11:33:58;;;;;;;3.35;1.85;;;;;;;26.92;27.39;95209.13;4929740;28;20027;-30
2022/04/23 11:36:33;;;;;;;2.50;1.50;;;;;;;26.92;27.39;95209.13;4930055;28;20069;-30
2022/04/23 11:39:00;;;;;;;4.55;1.83;;;;;;;26.92;27.39;95209.13;4928331;28;20310;-30
2022/04/23 11:41:31;;;;;;;5.63;2.33;;;;;;;26.92;27.39;95209.13;4932723;28;20028;-34
2022/04/23 11:43:57;;;;;;;3.78;1.75;;;;;;;26.92;27.39;95209.13;4926945;28;20078;-31
2022/04/23 11:46:22;;;;;;;4.28;1.65;;;;;;;26.92;27.39;95209.13;4914654;28;20039;-35
2022/04/23 11:48:48;;;;;;;4.00;1.80;;;;;;;26.92;27.39;95209.13;4925316;28;20042;-30
2022/04/23 11:51:18;;;;;;;7.38;1.70;;;;;;;26.92;27.39;95209.13;4933968;28;20038;-29
2022/04/23 11:54:00;;;;;;;5.10;2.00;;;;;;;26.92;27.39;95209.13;4926802;28;20374;-29
2022/04/23 11:56:32;;;;;;;3.85;1.70;;;;;;;26.92;27.39;95209.13;4927191;28;20035;-30
2022/04/23 11:59:09;;;;;;;7.53;2.83;;;;;;;26.92;27.39;95209.13;4927286;28;20094;-28
2022/04/23 12:01:36;;;;;;;8.23;4.72;;;;;;;26.92;27.39;95209.13;4927494;28;20059;-31